createdAt,value
2023-05-06T00:00:08.214Z,18.06
2023-05-06T00:03:17.180Z,18.10
2023-05-06T00:06:19.732Z,17.99
2023-05-06T00:09:24.075Z,18.03
2023-05-06T00:12:26.415Z,18.09
2023-05-06T00:15:30.175Z,17.96
2023-05-06T00:18:34.318Z,18.10
2023-05-06T00:21:36.725Z,18.03
2023-05-06T00:24:39.194Z,18.04
2023-05-06T00:27:41.534Z,18.07
2023-05-06T00:30:43.970Z,18.07
2023-05-06T00:33:46.419Z,18.06
2023-05-06T00:36:48.837Z,18.05
2023-05-06T00:39:51.197Z,18.02
2023-05-06T00:42:53.482Z,17.98
2023-05-06T00:45:55.951Z,17.97
2023-05-06T00:48:58.468Z,17.98
2023-05-06T00:52:01.395Z,17.97
2023-05-06T00:55:03.872Z,17.94
2023-05-06T00:58:06.583Z,18.03
2023-05-06T01:01:08.904Z,17.99
2023-05-06T01:04:12.377Z,17.97
2023-05-06T01:07:24.904Z,17.99
2023-05-06T01:10:43.089Z,18.01
2023-05-06T01:14:17.930Z,18.01
2023-05-06T01:17:21.155Z,18.00
2023-05-06T01:20:23.889Z,18.00
2023-05-06T01:23:26.238Z,17.99
2023-05-06T01:26:28.722Z,17.98
2023-05-06T01:29:31.218Z,17.97
2023-05-06T01:33:03.981Z,17.96
2023-05-06T01:37:00.359Z,17.96
2023-05-06T01:40:04.065Z,17.86
2023-05-06T01:43:07.965Z,17.89
2023-05-06T01:46:14.043Z,17.84
2023-05-06T01:49:17.360Z,17.94
2023-05-06T01:52:21.984Z,17.91
2023-05-06T01:55:24.424Z,17.92
2023-05-06T01:58:26.886Z,17.90
2023-05-06T02:01:29.370Z,17.90
2023-05-06T02:04:32.375Z,17.88
2023-05-06T02:07:35.386Z,17.90
2023-05-06T02:10:37.872Z,17.82
2023-05-06T02:13:43.768Z,17.88
2023-05-06T02:16:46.731Z,17.79
2023-05-06T02:19:49.834Z,17.78
2023-05-06T02:22:52.267Z,17.86
2023-05-06T02:25:54.703Z,17.82
2023-05-06T02:28:57.116Z,17.86
2023-05-06T02:31:59.522Z,17.82
2023-05-06T02:35:02.110Z,17.85
2023-05-06T02:38:04.611Z,17.85
2023-05-06T02:41:06.958Z,17.79
2023-05-06T02:44:09.350Z,17.84
2023-05-06T02:47:11.884Z,17.79
2023-05-06T02:50:14.257Z,17.78
2023-05-06T02:53:16.700Z,17.71
2023-05-06T02:56:19.020Z,17.83
2023-05-06T02:59:22.189Z,17.82
2023-05-06T03:02:24.552Z,17.73
2023-05-06T03:05:27.263Z,17.79
2023-05-06T03:08:29.636Z,17.79
2023-05-06T03:11:32.820Z,17.78
2023-05-06T03:14:39.224Z,17.80
2023-05-06T03:17:41.632Z,17.74
2023-05-06T03:20:45.039Z,17.69
2023-05-06T03:23:47.352Z,17.76
2023-05-06T03:26:50.618Z,17.76
2023-05-06T03:29:53.409Z,17.71
2023-05-06T03:33:01.242Z,17.77
2023-05-06T03:36:06.966Z,17.72
2023-05-06T03:39:10.769Z,17.62
2023-05-06T03:42:14.979Z,17.68
2023-05-06T03:45:17.820Z,17.70
2023-05-06T03:48:21.857Z,17.70
2023-05-06T03:51:24.792Z,17.76
2023-05-06T03:54:27.784Z,17.77
2023-05-06T03:57:30.478Z,17.78
2023-05-06T04:00:33.128Z,17.67
2023-05-06T04:03:35.724Z,17.73
2023-05-06T04:06:38.267Z,17.77
2023-05-06T04:09:40.722Z,17.69
2023-05-06T04:12:44.182Z,17.73
2023-05-06T04:15:49.083Z,17.82
2023-05-06T04:18:57.666Z,17.78
2023-05-06T04:22:00.663Z,17.81
2023-05-06T04:25:03.190Z,17.86
2023-05-06T04:28:06.723Z,17.87
2023-05-06T04:31:10.865Z,17.89
2023-05-06T04:34:21.931Z,17.90
2023-05-06T04:37:24.600Z,17.87
2023-05-06T04:40:35.483Z,17.95
2023-05-06T04:43:38.744Z,17.95
2023-05-06T04:46:47.624Z,17.98
2023-05-06T04:49:51.297Z,17.98
2023-05-06T04:52:53.949Z,17.96
2023-05-06T04:55:56.828Z,18.01
2023-05-06T04:58:59.315Z,18.01
2023-05-06T05:02:02.565Z,18.03
2023-05-06T05:05:05.380Z,18.02
2023-05-06T05:08:09.554Z,18.03
2023-05-06T05:11:12.900Z,17.98
2023-05-06T05:14:16.027Z,17.95
2023-05-06T05:17:18.855Z,17.95
2023-05-06T05:20:24.041Z,18.01
2023-05-06T05:23:26.621Z,18.09
2023-05-06T05:26:28.999Z,18.12
2023-05-06T05:29:33.383Z,18.23
2023-05-06T05:32:39.077Z,18.36
2023-05-06T05:35:41.548Z,18.41
2023-05-06T05:38:43.978Z,18.45
2023-05-06T05:41:46.769Z,18.45
2023-05-06T05:44:50.031Z,18.56
2023-05-06T05:47:54.152Z,18.60
2023-05-06T05:50:57.985Z,18.63
2023-05-06T05:54:00.836Z,18.67
2023-05-06T05:57:03.973Z,18.63
2023-05-06T06:00:07.629Z,18.71
2023-05-06T06:03:19.437Z,18.81
2023-05-06T06:06:21.890Z,18.88
2023-05-06T06:09:25.037Z,18.79
2023-05-06T06:12:28.283Z,19.09
2023-05-06T06:15:31.702Z,19.19
2023-05-06T06:18:34.197Z,19.25
2023-05-06T06:21:36.909Z,19.32
2023-05-06T06:24:39.467Z,19.41
2023-05-06T06:27:41.825Z,19.52
2023-05-06T06:30:44.258Z,19.61
2023-05-06T06:33:47.191Z,19.72
2023-05-06T06:36:49.601Z,19.81
2023-05-06T06:39:51.916Z,19.70
2023-05-06T06:42:54.652Z,19.79
2023-05-06T06:46:16.081Z,19.69
2023-05-06T06:49:18.490Z,19.77
2023-05-06T06:52:20.895Z,19.81
2023-05-06T06:55:23.298Z,19.72
2023-05-06T06:58:25.671Z,19.79
2023-05-06T07:01:28.041Z,19.96
2023-05-06T07:04:30.877Z,19.98
2023-05-06T07:07:33.265Z,20.16
2023-05-06T07:10:36.518Z,20.37
2023-05-06T07:13:39.037Z,20.72
2023-05-06T07:16:42.100Z,21.01
2023-05-06T07:19:45.263Z,21.15
2023-05-06T07:22:47.651Z,21.42
2023-05-06T07:25:50.054Z,21.55
2023-05-06T07:28:52.573Z,21.70
2023-05-06T07:31:54.924Z,21.67
2023-05-06T07:34:57.251Z,21.79
2023-05-06T07:37:59.672Z,21.83
2023-05-06T07:41:02.125Z,21.87
2023-05-06T07:44:04.784Z,21.83
2023-05-06T07:47:07.399Z,21.63
2023-05-06T07:50:10.675Z,21.70
2023-05-06T07:53:13.976Z,21.60
2023-05-06T07:56:16.373Z,21.67
2023-05-06T07:59:18.928Z,21.69
2023-05-06T08:02:21.346Z,21.63
2023-05-06T08:05:23.674Z,21.61
2023-05-06T08:08:28.894Z,21.48
2023-05-06T08:11:31.499Z,21.37
2023-05-06T08:14:33.844Z,21.41
2023-05-06T08:17:36.323Z,21.19
2023-05-06T08:20:39.114Z,21.26
2023-05-06T08:23:41.448Z,21.24
2023-05-06T08:26:43.832Z,21.21
2023-05-06T08:29:46.199Z,21.16
2023-05-06T08:32:48.582Z,21.13
2023-05-06T08:35:51.042Z,21.10
2023-05-06T08:38:53.414Z,21.05
2023-05-06T08:41:56.531Z,21.03
2023-05-06T08:44:59.947Z,20.92
2023-05-06T08:48:02.611Z,21.00
2023-05-06T08:51:05.453Z,20.93
2023-05-06T08:54:08.075Z,20.87
2023-05-06T08:57:12.548Z,20.95
2023-05-06T09:00:15.819Z,20.93
2023-05-06T09:03:18.335Z,20.90
2023-05-06T09:06:21.287Z,20.81
2023-05-06T09:09:23.675Z,20.86
2023-05-06T09:12:26.455Z,20.86
2023-05-06T09:15:39.791Z,20.88
2023-05-06T09:18:42.563Z,20.85
2023-05-06T09:21:47.293Z,20.84
2023-05-06T09:24:56.927Z,20.84
2023-05-06T09:28:10.220Z,20.82
2023-05-06T09:31:14.890Z,20.83
2023-05-06T09:34:18.153Z,20.81
2023-05-06T09:37:21.140Z,20.79
2023-05-06T09:40:24.507Z,20.77
2023-05-06T09:43:26.908Z,20.70
2023-05-06T09:46:29.496Z,20.71
2023-05-06T09:49:32.352Z,20.75
2023-05-06T09:52:35.282Z,20.74
2023-05-06T09:55:37.973Z,20.69
2023-05-06T09:58:40.650Z,20.73
2023-05-06T10:01:43.098Z,20.67
2023-05-06T10:04:46.582Z,20.72
2023-05-06T10:07:49.938Z,20.75
2023-05-06T10:11:10.744Z,20.74
2023-05-06T10:14:13.130Z,20.68
2023-05-06T10:17:16.523Z,20.74
2023-05-06T10:20:19.589Z,20.67
2023-05-06T10:23:26.971Z,20.69
2023-05-06T10:26:31.076Z,20.67
2023-05-06T10:29:36.257Z,20.58
2023-05-06T10:32:42.187Z,20.65
2023-05-06T10:35:53.411Z,20.65
2023-05-06T10:38:57.527Z,20.56
2023-05-06T10:42:02.417Z,20.61
2023-05-06T10:45:06.011Z,20.63
2023-05-06T10:48:14.769Z,20.61
2023-05-06T10:51:17.175Z,20.60
2023-05-06T10:54:20.499Z,20.60
2023-05-06T10:57:26.938Z,20.58
2023-05-06T11:00:34.138Z,20.57
2023-05-06T11:03:36.567Z,20.54
2023-05-06T11:06:46.252Z,20.55
2023-05-06T11:09:56.385Z,20.54
2023-05-06T11:12:59.143Z,20.49
2023-05-06T11:16:03.998Z,20.52
2023-05-06T11:19:06.453Z,20.52
2023-05-06T11:22:08.904Z,20.30
2023-05-06T11:25:11.327Z,20.44
2023-05-06T11:28:14.926Z,20.45
2023-05-06T11:31:17.780Z,20.40
2023-05-06T11:34:26.218Z,20.47
2023-05-06T11:37:29.758Z,20.41
2023-05-06T11:40:32.386Z,20.42
2023-05-06T11:43:34.902Z,20.27
2023-05-06T11:46:37.416Z,20.36
2023-05-06T11:49:43.369Z,20.34
2023-05-06T11:52:45.737Z,20.28
2023-05-06T11:55:49.797Z,20.28
2023-05-06T11:58:52.312Z,20.21
2023-05-06T12:01:57.084Z,20.27
2023-05-06T12:05:02.998Z,20.25
2023-05-06T12:08:13.329Z,20.16
2023-05-06T12:11:22.621Z,20.23
2023-05-06T12:14:25.208Z,20.22
2023-05-06T12:17:27.543Z,20.20
2023-05-06T12:20:29.986Z,20.14
2023-05-06T12:23:32.463Z,20.20
2023-05-06T12:26:45.804Z,20.14
2023-05-06T12:29:54.363Z,20.19
2023-05-06T12:33:01.003Z,20.12
2023-05-06T12:36:07.466Z,20.10
2023-05-06T12:39:11.809Z,20.16
2023-05-06T12:42:20.494Z,20.13
2023-05-06T12:45:23.201Z,20.12
2023-05-06T12:48:25.578Z,19.99
2023-05-06T12:51:28.899Z,20.09
2023-05-06T12:54:31.651Z,20.09
2023-05-06T12:57:34.019Z,19.99
2023-05-06T13:00:36.365Z,20.07
2023-05-06T13:03:41.044Z,20.07
2023-05-06T13:06:43.607Z,20.05
2023-05-06T13:09:46.291Z,19.94
2023-05-06T13:12:48.810Z,19.98
2023-05-06T13:15:53.135Z,20.05
2023-05-06T13:18:55.613Z,20.04
2023-05-06T13:21:58.811Z,20.01
2023-05-06T13:25:01.676Z,20.00
2023-05-06T13:28:04.119Z,20.02
2023-05-06T13:31:06.807Z,19.94
2023-05-06T13:34:09.160Z,20.00
2023-05-06T13:37:11.556Z,19.98
2023-05-06T13:40:14.650Z,19.97
2023-05-06T13:43:17.584Z,19.87
2023-05-06T13:46:20.062Z,19.95
2023-05-06T13:49:22.510Z,19.93
2023-05-06T13:52:24.826Z,19.90
2023-05-06T13:55:27.184Z,19.91
2023-05-06T13:58:29.592Z,19.83
2023-05-06T14:01:31.975Z,19.90
2023-05-06T14:04:34.391Z,19.85
2023-05-06T14:07:38.412Z,19.83
2023-05-06T14:10:42.678Z,19.88
2023-05-06T14:13:44.984Z,19.88
2023-05-06T14:16:47.649Z,19.85
2023-05-06T14:19:50.016Z,19.79
2023-05-06T14:22:52.422Z,19.87
2023-05-06T14:25:54.790Z,19.80
2023-05-06T14:28:57.222Z,19.85
2023-05-06T14:31:59.696Z,19.80
2023-05-06T14:35:02.223Z,19.85
2023-05-06T14:38:04.679Z,19.82
2023-05-06T14:41:07.033Z,19.71
2023-05-06T14:44:09.410Z,19.70
2023-05-06T14:47:11.741Z,19.75
2023-05-06T14:50:14.077Z,19.83
2023-05-06T14:53:16.591Z,19.85
2023-05-06T14:56:18.947Z,19.86
2023-05-06T14:59:21.423Z,19.87
2023-05-06T15:02:23.849Z,19.86
2023-05-06T15:05:26.508Z,19.86
2023-05-06T15:08:28.895Z,19.84
2023-05-06T15:11:32.273Z,19.85
2023-05-06T15:14:34.654Z,19.84
2023-05-06T15:17:37.598Z,19.80
2023-05-06T15:20:40.082Z,19.84
2023-05-06T15:23:42.432Z,19.87
2023-05-06T15:26:44.952Z,19.77
2023-05-06T15:29:47.443Z,19.85
2023-05-06T15:32:49.863Z,19.77
2023-05-06T15:35:52.213Z,19.81
2023-05-06T15:39:00.358Z,19.83
2023-05-06T15:42:03.070Z,19.77
2023-05-06T15:45:06.416Z,19.79
2023-05-06T15:48:08.794Z,19.69
2023-05-06T15:51:11.258Z,19.75
2023-05-06T15:54:18.064Z,19.75
2023-05-06T15:57:20.485Z,19.69
2023-05-06T16:00:23.274Z,19.75
2023-05-06T16:03:25.823Z,19.73
2023-05-06T16:06:28.240Z,19.73
2023-05-06T16:09:30.655Z,19.73
2023-05-06T16:12:33.143Z,19.72
2023-05-06T16:15:35.742Z,19.70
2023-05-06T16:18:38.119Z,19.71
2023-05-06T16:21:40.601Z,19.65
2023-05-06T16:24:42.995Z,19.63
2023-05-06T16:27:45.312Z,19.69
2023-05-06T16:30:47.757Z,19.68
2023-05-06T16:33:50.939Z,19.59
2023-05-06T16:36:54.408Z,19.63
2023-05-06T16:39:56.804Z,19.65
2023-05-06T16:42:59.271Z,19.54
2023-05-06T16:46:01.609Z,19.52
2023-05-06T16:49:04.680Z,19.53
2023-05-06T16:52:07.020Z,19.52
2023-05-06T16:55:09.635Z,19.52
2023-05-06T16:58:12.046Z,19.57
2023-05-06T17:01:14.500Z,19.57
2023-05-06T17:04:17.019Z,19.52
2023-05-06T17:07:19.481Z,19.54
2023-05-06T17:10:22.168Z,19.49
2023-05-06T17:13:24.632Z,19.48
2023-05-06T17:16:27.093Z,19.45
2023-05-06T17:19:29.499Z,19.41
2023-05-06T17:22:32.152Z,19.35
2023-05-06T17:28:36.845Z,19.41
2023-05-06T17:31:39.261Z,19.35
2023-05-06T17:34:41.747Z,19.39
2023-05-06T17:37:44.068Z,19.37
2023-05-06T17:40:46.468Z,19.36
2023-05-06T17:43:48.841Z,19.23
2023-05-06T17:46:51.190Z,19.33
2023-05-06T17:49:53.914Z,19.22
2023-05-06T17:52:56.313Z,19.30
2023-05-06T17:55:58.661Z,19.29
2023-05-06T17:59:02.714Z,19.23
2023-05-06T18:02:08.508Z,19.25
2023-05-06T18:05:11.688Z,19.14
2023-05-06T18:08:14.392Z,19.23
2023-05-06T18:11:17.473Z,19.14
2023-05-06T18:14:19.895Z,19.11
2023-05-06T18:17:22.274Z,19.15
2023-05-06T18:20:24.718Z,19.16
2023-05-06T18:23:27.093Z,19.13
2023-05-06T18:26:43.984Z,19.09
2023-05-06T18:29:48.429Z,19.05
2023-05-06T18:32:51.776Z,19.15
2023-05-06T18:35:54.713Z,19.13
2023-05-06T18:38:57.151Z,19.12
2023-05-06T18:41:59.949Z,19.11
2023-05-06T18:45:04.641Z,19.10
2023-05-06T18:48:07.087Z,19.07
2023-05-06T18:51:17.114Z,19.08
2023-05-06T18:54:19.625Z,19.04
2023-05-06T18:57:22.600Z,19.05
2023-05-06T19:00:26.501Z,19.02
2023-05-06T19:03:29.457Z,19.02
2023-05-06T19:06:32.581Z,19.02
2023-05-06T19:09:37.222Z,19.00
2023-05-06T19:12:39.718Z,19.01
2023-05-06T19:15:42.204Z,19.00
2023-05-06T19:18:44.586Z,18.95
2023-05-06T19:21:46.902Z,18.99
2023-05-06T19:24:49.217Z,18.98
2023-05-06T19:27:52.730Z,18.98
2023-05-06T19:30:55.114Z,18.98
2023-05-06T19:33:57.559Z,18.96
2023-05-06T19:36:59.873Z,18.90
2023-05-06T19:40:03.934Z,18.95
2023-05-06T19:43:06.418Z,18.89
2023-05-06T19:46:09.405Z,18.86
2023-05-06T19:49:11.753Z,18.88
2023-05-06T19:52:14.152Z,18.88
2023-05-06T19:55:16.757Z,18.92
2023-05-06T19:58:19.466Z,18.86
2023-05-06T20:01:23.976Z,18.92
2023-05-06T20:04:26.495Z,18.91
2023-05-06T20:07:28.833Z,18.90
2023-05-06T20:10:31.192Z,18.88
2023-05-06T20:13:33.749Z,18.90
2023-05-06T20:16:36.320Z,18.88
2023-05-06T20:19:39.094Z,18.88
2023-05-06T20:22:41.597Z,18.87
2023-05-06T20:25:43.985Z,18.77
2023-05-06T20:28:46.422Z,18.83
2023-05-06T20:31:48.837Z,18.80
2023-05-06T20:34:51.430Z,18.82
2023-05-06T20:37:54.643Z,18.80
2023-05-06T20:40:58.874Z,18.84
2023-05-06T20:44:01.445Z,18.80
2023-05-06T20:47:03.899Z,18.83
2023-05-06T20:50:06.680Z,18.81
2023-05-06T20:53:09.059Z,18.68
2023-05-06T20:56:24.753Z,18.72
2023-05-06T20:59:29.500Z,18.75
2023-05-06T21:02:32.993Z,18.74
2023-05-06T21:05:36.730Z,18.71
2023-05-06T21:08:39.121Z,18.77
2023-05-06T21:11:41.447Z,18.76
2023-05-06T21:14:43.809Z,18.77
2023-05-06T21:17:46.434Z,18.76
2023-05-06T21:20:49.058Z,18.76
2023-05-06T21:23:51.712Z,18.75
2023-05-06T21:26:54.039Z,18.62
2023-05-06T21:29:56.811Z,18.75
2023-05-06T21:32:59.229Z,18.73
2023-05-06T21:36:01.622Z,18.73
2023-05-06T21:39:12.114Z,18.73
2023-05-06T21:42:14.552Z,18.72
2023-05-06T21:45:17.156Z,18.71
2023-05-06T21:48:19.511Z,18.71
2023-05-06T21:51:21.885Z,18.69
2023-05-06T21:54:25.112Z,18.62
2023-05-06T21:57:27.478Z,18.68
2023-05-06T22:00:30.211Z,18.67
2023-05-06T22:03:32.705Z,18.59
2023-05-06T22:06:35.190Z,18.65
2023-05-06T22:09:37.779Z,18.55
2023-05-06T22:12:40.166Z,18.62
2023-05-06T22:15:43.408Z,18.63
2023-05-06T22:18:45.892Z,18.61
2023-05-06T22:21:48.243Z,18.61
2023-05-06T22:24:50.776Z,18.55
2023-05-06T22:27:53.120Z,18.56
2023-05-06T22:30:55.562Z,18.53
2023-05-06T22:34:03.450Z,18.47
2023-05-06T22:37:09.824Z,18.53
2023-05-06T22:40:12.702Z,18.52
2023-05-06T22:43:15.045Z,18.47
2023-05-06T22:46:17.447Z,18.54
2023-05-06T22:49:20.218Z,18.56
2023-05-06T22:52:22.626Z,18.56
2023-05-06T22:55:24.953Z,18.51
2023-05-06T22:58:27.304Z,18.49
2023-05-06T23:01:33.057Z,18.48
2023-05-06T23:04:35.433Z,18.53
2023-05-06T23:07:38.716Z,18.51
2023-05-06T23:10:41.478Z,18.52
2023-05-06T23:13:43.819Z,18.47
2023-05-06T23:16:46.291Z,18.48
2023-05-06T23:19:48.622Z,18.41
2023-05-06T23:22:51.072Z,18.43
2023-05-06T23:25:53.426Z,18.38
2023-05-06T23:28:55.886Z,18.51
2023-05-06T23:31:58.220Z,18.47
2023-05-06T23:35:04.775Z,18.42
2023-05-06T23:38:07.212Z,18.42
2023-05-06T23:41:09.573Z,18.37
2023-05-06T23:44:11.983Z,18.44
2023-05-06T23:47:14.303Z,18.43
2023-05-06T23:50:16.649Z,18.47
2023-05-06T23:53:18.984Z,18.45
2023-05-06T23:56:21.903Z,18.41
2023-05-06T23:59:24.262Z,18.45
